sensor_id;sensor_type;location;lat;lon;timestamp;temperature;humidity
14775;DHT22;7479;47.042;15.160;2023-01-13T09:21:16;3.70;99.90
14775;DHT22;7479;47.042;15.160;2023-01-13T09:26:13;3.70;99.90
14775;DHT22;7479;47.042;15.160;2023-01-13T09:31:08;3.90;99.90
14775;DHT22;7479;47.042;15.160;2023-01-13T09:36:02;4.00;99.90
14775;DHT22;7479;47.042;15.160;2023-01-13T09:40:57;4.10;99.90
14775;DHT22;7479;47.042;15.160;2023-01-13T09:45:54;4.30;99.90
14775;DHT22;7479;47.042;15.160;2023-01-13T09:50:59;4.40;99.90
14775;DHT22;7479;47.042;15.160;2023-01-13T09:55:57;4.60;99.90
14775;DHT22;7479;47.042;15.160;2023-01-13T10:01:01;4.70;99.90
14775;DHT22;7479;47.042;15.160;2023-01-13T10:06:00;4.80;99.90
14775;DHT22;7479;47.042;15.160;2023-01-13T10:10:59;4.90;99.90
14775;DHT22;7479;47.042;15.160;2023-01-13T10:16:24;5.00;99.90
14775;DHT22;7479;47.042;15.160;2023-01-13T10:21:34;5.20;99.90
14775;DHT22;7479;47.042;15.160;2023-01-13T10:26:46;5.30;99.90
14775;DHT22;7479;47.042;15.160;2023-01-13T10:31:43;5.40;99.90
14775;DHT22;7479;47.042;15.160;2023-01-13T10:36:37;5.60;99.90
14775;DHT22;7479;47.042;15.160;2023-01-13T10:41:30;5.70;99.90
14775;DHT22;7479;47.042;15.160;2023-01-13T10:46:27;5.90;99.90
14775;DHT22;7479;47.042;15.160;2023-01-13T10:51:24;6.10;99.90
14775;DHT22;7479;47.042;15.160;2023-01-13T10:56:20;6.40;99.90
14775;DHT22;7479;47.042;15.160;2023-01-13T11:01:21;6.70;99.90
14775;DHT22;7479;47.042;15.160;2023-01-13T11:06:21;7.20;99.90
14775;DHT22;7479;47.042;15.160;2023-01-13T11:11:36;7.70;99.90
14775;DHT22;7479;47.042;15.160;2023-01-13T11:16:34;8.20;99.90
14775;DHT22;7479;47.042;15.160;2023-01-13T11:21:45;8.70;99.90
14775;DHT22;7479;47.042;15.160;2023-01-13T11:26:52;9.40;99.90
14775;DHT22;7479;47.042;15.160;2023-01-13T11:31:50;9.70;99.90
14775;DHT22;7479;47.042;15.160;2023-01-13T11:36:49;9.60;99.90
14775;DHT22;7479;47.042;15.160;2023-01-13T11:41:47;9.60;99.90
14775;DHT22;7479;47.042;15.160;2023-01-13T11:47:02;9.60;99.90
14775;DHT22;7479;47.042;15.160;2023-01-13T11:52:03;9.50;99.90
14775;DHT22;7479;47.042;15.160;2023-01-13T11:57:29;9.40;99.90
14775;DHT22;7479;47.042;15.160;2023-01-13T12:02:43;9.50;99.90
14775;DHT22;7479;47.042;15.160;2023-01-13T12:07:48;9.60;99.90
14775;DHT22;7479;47.042;15.160;2023-01-13T12:12:50;9.60;99.90
14775;DHT22;7479;47.042;15.160;2023-01-13T12:17:54;9.80;99.90
14775;DHT22;7479;47.042;15.160;2023-01-13T12:22:53;9.90;99.90
14775;DHT22;7479;47.042;15.160;2023-01-13T12:27:52;9.90;99.90
14775;DHT22;7479;47.042;15.160;2023-01-13T12:32:52;9.90;99.90
14775;DHT22;7479;47.042;15.160;2023-01-13T12:37:53;10.00;99.90
14775;DHT22;7479;47.042;15.160;2023-01-13T12:42:54;9.90;99.90
14775;DHT22;7479;47.042;15.160;2023-01-13T12:48:45;9.90;99.90
14775;DHT22;7479;47.042;15.160;2023-01-13T12:53:42;9.80;99.90
14775;DHT22;7479;47.042;15.160;2023-01-13T12:58:35;9.80;99.90
14775;DHT22;7479;47.042;15.160;2023-01-13T13:03:33;9.70;99.90
14775;DHT22;7479;47.042;15.160;2023-01-13T13:08:56;9.70;99.90
14775;DHT22;7479;47.042;15.160;2023-01-13T13:13:55;9.60;99.90
14775;DHT22;7479;47.042;15.160;2023-01-13T13:18:49;9.60;99.90
14775;DHT22;7479;47.042;15.160;2023-01-13T13:23:56;9.60;99.90
14775;DHT22;7479;47.042;15.160;2023-01-13T13:29:21;9.50;99.90
14775;DHT22;7479;47.042;15.160;2023-01-13T13:34:26;9.50;99.90
14775;DHT22;7479;47.042;15.160;2023-01-13T13:39:24;9.40;99.90
14775;DHT22;7479;47.042;15.160;2023-01-13T13:44:38;9.30;99.90
14775;DHT22;7479;47.042;15.160;2023-01-13T13:49:51;9.20;99.90
14775;DHT22;7479;47.042;15.160;2023-01-13T13:54:50;9.10;99.90
14775;DHT22;7479;47.042;15.160;2023-01-13T13:59:44;9.00;99.90
14775;DHT22;7479;47.042;15.160;2023-01-13T14:04:39;8.90;99.90
14775;DHT22;7479;47.042;15.160;2023-01-13T14:09:40;8.90;99.90
14775;DHT22;7479;47.042;15.160;2023-01-13T14:14:41;8.80;99.90
14775;DHT22;7479;47.042;15.160;2023-01-13T14:19:35;8.70;99.90
14775;DHT22;7479;47.042;15.160;2023-01-13T14:24:44;8.60;99.90
14775;DHT22;7479;47.042;15.160;2023-01-13T14:29:40;8.50;99.90
14775;DHT22;7479;47.042;15.160;2023-01-13T14:34:34;8.40;99.90
